sensor_id;sensor_type;location;lat;lon;timestamp;pressure;altitude;pressure_sealevel;temperature;humidity
60437;BME280;46289;51.992;4.498;2023-08-17T00:01:13;102192.53;;;17.69;85.96
60437;BME280;46289;51.992;4.498;2023-08-17T00:03:15;102203.78;;;17.74;85.49
60437;BME280;46289;51.992;4.498;2023-08-17T00:05:21;102193.16;;;17.74;85.54
60437;BME280;46289;51.992;4.498;2023-08-17T00:07:26;102204.91;;;17.70;85.31
60437;BME280;46289;51.992;4.498;2023-08-17T00:09:31;102197.13;;;17.65;85.23
60437;BME280;46289;51.992;4.498;2023-08-17T00:11:39;102198.72;;;17.69;84.98
60437;BME280;46289;51.992;4.498;2023-08-17T00:13:44;102198.78;;;17.68;84.79
60437;BME280;46289;51.992;4.498;2023-08-17T00:15:47;102202.41;;;17.67;84.82
60437;BME280;46289;51.992;4.498;2023-08-17T00:17:52;102199.72;;;17.67;84.57
60437;BME280;46289;51.992;4.498;2023-08-17T00:19:55;102199.63;;;17.68;84.89
60437;BME280;46289;51.992;4.498;2023-08-17T00:22:00;102199.84;;;17.64;84.95
60437;BME280;46289;51.992;4.498;2023-08-17T00:24:05;102201.44;;;17.68;85.04
60437;BME280;46289;51.992;4.498;2023-08-17T00:26:10;102192.78;;;17.64;85.07
60437;BME280;46289;51.992;4.498;2023-08-17T00:28:18;102192.84;;;17.63;85.73
60437;BME280;46289;51.992;4.498;2023-08-17T00:30:23;102199.22;;;17.59;86.06
60437;BME280;46289;51.992;4.498;2023-08-17T00:32:31;102193.56;;;17.47;86.70
60437;BME280;46289;51.992;4.498;2023-08-17T00:34:36;102190.84;;;17.49;86.70
60437;BME280;46289;51.992;4.498;2023-08-17T00:36:41;102192.72;;;17.47;87.16
60437;BME280;46289;51.992;4.498;2023-08-17T00:38:43;102194.06;;;17.55;86.55
60437;BME280;46289;51.992;4.498;2023-08-17T00:40:48;102192.66;;;17.48;86.52
60437;BME280;46289;51.992;4.498;2023-08-17T00:42:54;102193.41;;;17.50;86.64
60437;BME280;46289;51.992;4.498;2023-08-17T00:45:02;102195.44;;;17.45;86.89
60437;BME280;46289;51.992;4.498;2023-08-17T00:47:07;102196.44;;;17.43;86.46
60437;BME280;46289;51.992;4.498;2023-08-17T00:49:10;102196.59;;;17.40;86.89
60437;BME280;46289;51.992;4.498;2023-08-17T00:51:15;102194.03;;;17.38;87.14
60437;BME280;46289;51.992;4.498;2023-08-17T00:53:22;102198.38;;;17.39;86.70
60437;BME280;46289;51.992;4.498;2023-08-17T00:55:30;102195.56;;;17.42;86.84
60437;BME280;46289;51.992;4.498;2023-08-17T00:57:36;102197.59;;;17.37;86.57
60437;BME280;46289;51.992;4.498;2023-08-17T00:59:41;102195.88;;;17.36;86.80
60437;BME280;46289;51.992;4.498;2023-08-17T01:02:07;102196.78;;;17.35;86.76
60437;BME280;46289;51.992;4.498;2023-08-17T01:04:13;102201.25;;;17.34;85.75
60437;BME280;46289;51.992;4.498;2023-08-17T01:06:18;102202.19;;;17.33;85.82
60437;BME280;46289;51.992;4.498;2023-08-17T01:08:25;102201.69;;;17.25;85.76
60437;BME280;46289;51.992;4.498;2023-08-17T01:10:37;102200.50;;;17.32;85.36
60437;BME280;46289;51.992;4.498;2023-08-17T01:12:50;102194.28;;;17.32;85.40
60437;BME280;46289;51.992;4.498;2023-08-17T01:15:07;102196.28;;;17.27;84.53
60437;BME280;46289;51.992;4.498;2023-08-17T01:17:19;102196.28;;;17.27;84.49
60437;BME280;46289;51.992;4.498;2023-08-17T01:19:27;102186.56;;;17.27;84.31
60437;BME280;46289;51.992;4.498;2023-08-17T01:21:41;102196.09;;;17.31;84.12
60437;BME280;46289;51.992;4.498;2023-08-17T01:23:52;102192.72;;;17.28;84.01
60437;BME280;46289;51.992;4.498;2023-08-17T01:26:02;102194.28;;;17.32;83.85
60437;BME280;46289;51.992;4.498;2023-08-17T01:28:07;102197.88;;;17.31;83.53
60437;BME280;46289;51.992;4.498;2023-08-17T01:30:14;102188.56;;;17.22;83.82
60437;BME280;46289;51.992;4.498;2023-08-17T01:32:25;102190.13;;;17.26;83.48
60437;BME280;46289;51.992;4.498;2023-08-17T01:34:34;102190.22;;;17.25;83.67
60437;BME280;46289;51.992;4.498;2023-08-17T01:36:45;102182.25;;;17.25;83.18
60437;BME280;46289;51.992;4.498;2023-08-17T01:38:56;102181.50;;;17.21;83.48
60437;BME280;46289;51.992;4.498;2023-08-17T01:41:02;102179.94;;;17.17;83.35
60437;BME280;46289;51.992;4.498;2023-08-17T01:43:06;102181.81;;;17.15;83.37
60437;BME280;46289;51.992;4.498;2023-08-17T01:45:12;102188.84;;;17.16;82.96
60437;BME280;46289;51.992;4.498;2023-08-17T01:47:20;102191.78;;;17.10;82.83
60437;BME280;46289;51.992;4.498;2023-08-17T01:49:23;102182.09;;;17.09;82.57
60437;BME280;46289;51.992;4.498;2023-08-17T01:51:32;102180.31;;;17.09;82.82
60437;BME280;46289;51.992;4.498;2023-08-17T01:53:37;102177.00;;;17.04;82.86
60437;BME280;46289;51.992;4.498;2023-08-17T01:55:44;102178.84;;;17.02;83.06
60437;BME280;46289;51.992;4.498;2023-08-17T01:57:47;102182.38;;;17.03;83.10
60437;BME280;46289;51.992;4.498;2023-08-17T01:59:52;102179.00;;;16.99;83.45
60437;BME280;46289;51.992;4.498;2023-08-17T02:01:57;102184.22;;;17.01;83.25
60437;BME280;46289;51.992;4.498;2023-08-17T02:03:59;102184.16;;;17.02;83.07
60437;BME280;46289;51.992;4.498;2023-08-17T02:06:04;102183.22;;;17.03;82.64
60437;BME280;46289;51.992;4.498;2023-08-17T02:08:09;102189.84;;;16.95;82.84
60437;BME280;46289;51.992;4.498;2023-08-17T02:10:14;102176.69;;;16.92;83.09
60437;BME280;46289;51.992;4.498;2023-08-17T02:12:21;102178.34;;;16.94;82.96
60437;BME280;46289;51.992;4.498;2023-08-17T02:14:26;102170.75;;;16.86;83.36
60437;BME280;46289;51.992;4.498;2023-08-17T02:16:31;102176.38;;;16.79;84.04
60437;BME280;46289;51.992;4.498;2023-08-17T02:18:36;102181.81;;;16.76;84.12
60437;BME280;46289;51.992;4.498;2023-08-17T02:20:41;102181.09;;;16.72;84.16
60437;BME280;46289;51.992;4.498;2023-08-17T02:22:51;102182.00;;;16.71;83.83
60437;BME280;46289;51.992;4.498;2023-08-17T02:24:56;102184.59;;;16.73;84.02
60437;BME280;46289;51.992;4.498;2023-08-17T02:27:02;102183.88;;;16.69;84.27
60437;BME280;46289;51.992;4.498;2023-08-17T02:29:09;102185.81;;;16.65;84.53
60437;BME280;46289;51.992;4.498;2023-08-17T02:31:15;102185.94;;;16.62;84.19
60437;BME280;46289;51.992;4.498;2023-08-17T02:33:22;102181.50;;;16.63;84.14
60437;BME280;46289;51.992;4.498;2023-08-17T02:35:27;102184.34;;;16.58;83.99
60437;BME280;46289;51.992;4.498;2023-08-17T02:37:32;102179.97;;;16.57;83.97
60437;BME280;46289;51.992;4.498;2023-08-17T02:39:41;102178.53;;;16.50;83.84
60437;BME280;46289;51.992;4.498;2023-08-17T02:41:48;102179.50;;;16.48;84.33
60437;BME280;46289;51.992;4.498;2023-08-17T02:43:55;102169.91;;;16.45;84.56
60437;BME280;46289;51.992;4.498;2023-08-17T02:46:03;102168.91;;;16.48;83.88
60437;BME280;46289;51.992;4.498;2023-08-17T02:48:09;102174.28;;;16.46;83.83
60437;BME280;46289;51.992;4.498;2023-08-17T02:50:11;102165.38;;;16.47;83.74
60437;BME280;46289;51.992;4.498;2023-08-17T02:52:16;102168.19;;;16.44;83.93
60437;BME280;46289;51.992;4.498;2023-08-17T02:54:24;102169.91;;;16.45;83.76
60437;BME280;46289;51.992;4.498;2023-08-17T02:56:29;102168.91;;;16.48;83.72
60437;BME280;46289;51.992;4.498;2023-08-17T02:58:34;102162.88;;;16.44;84.01
60437;BME280;46289;51.992;4.498;2023-08-17T03:00:40;102161.78;;;16.48;84.14
60437;BME280;46289;51.992;4.498;2023-08-17T03:02:48;102164.44;;;16.48;84.42
60437;BME280;46289;51.992;4.498;2023-08-17T03:04:55;102166.09;;;16.51;84.91
60437;BME280;46289;51.992;4.498;2023-08-17T03:07:02;102171.16;;;16.57;84.91
60437;BME280;46289;51.992;4.498;2023-08-17T03:09:07;102168.72;;;16.52;85.15
60437;BME280;46289;51.992;4.498;2023-08-17T03:11:12;102163.25;;;16.55;85.57
60437;BME280;46289;51.992;4.498;2023-08-17T03:13:17;102162.53;;;16.52;85.70
60437;BME280;46289;51.992;4.498;2023-08-17T03:15:22;102167.66;;;16.56;85.89
60437;BME280;46289;51.992;4.498;2023-08-17T03:17:27;102165.91;;;16.55;86.37
60437;BME280;46289;51.992;4.498;2023-08-17T03:19:37;102163.41;;;16.52;86.42
60437;BME280;46289;51.992;4.498;2023-08-17T03:21:42;102168.66;;;16.54;86.78
60437;BME280;46289;51.992;4.498;2023-08-17T03:23:48;102169.38;;;16.57;86.45
60437;BME280;46289;51.992;4.498;2023-08-17T03:25:54;102170.66;;;16.49;86.99
60437;BME280;46289;51.992;4.498;2023-08-17T03:27:59;102165.19;;;16.52;87.31
60437;BME280;46289;51.992;4.498;2023-08-17T03:30:02;102165.25;;;16.50;87.01
60437;BME280;46289;51.992;4.498;2023-08-17T03:32:07;102167.84;;;16.52;86.89
60437;BME280;46289;51.992;4.498;2023-08-17T03:34:12;102166.34;;;16.46;87.30
60437;BME280;46289;51.992;4.498;2023-08-17T03:36:20;102170.69;;;16.47;87.41
60437;BME280;46289;51.992;4.498;2023-08-17T03:38:22;102171.63;;;16.46;87.58
60437;BME280;46289;51.992;4.498;2023-08-17T03:40:27;102165.59;;;16.42;87.96
60437;BME280;46289;51.992;4.498;2023-08-17T03:42:32;102164.34;;;16.51;87.56
60437;BME280;46289;51.992;4.498;2023-08-17T03:44:37;102163.81;;;16.43;88.04
60437;BME280;46289;51.992;4.498;2023-08-17T03:46:43;102157.72;;;16.41;88.32
60437;BME280;46289;51.992;4.498;2023-08-17T03:48:48;102164.59;;;16.45;88.33
60437;BME280;46289;51.992;4.498;2023-08-17T03:50:54;102163.03;;;16.41;88.53
60437;BME280;46289;51.992;4.498;2023-08-17T03:53:02;102165.72;;;16.39;88.83
60437;BME280;46289;51.992;4.498;2023-08-17T03:55:08;102154.31;;;16.37;88.98
60437;BME280;46289;51.992;4.498;2023-08-17T03:57:13;102155.25;;;16.36;89.08
60437;BME280;46289;51.992;4.498;2023-08-17T03:59:18;102160.41;;;16.39;89.38
60437;BME280;46289;51.992;4.498;2023-08-17T04:01:23;102157.84;;;16.38;89.42
60437;BME280;46289;51.992;4.498;2023-08-17T04:03:28;102161.28;;;16.40;89.54
60437;BME280;46289;51.992;4.498;2023-08-17T04:05:33;102158.56;;;16.41;89.33
60437;BME280;46289;51.992;4.498;2023-08-17T04:07:38;102155.25;;;16.36;89.74
60437;BME280;46289;51.992;4.498;2023-08-17T04:09:46;102156.19;;;16.35;89.43
60437;BME280;46289;51.992;4.498;2023-08-17T04:11:55;102153.25;;;16.41;89.65
60437;BME280;46289;51.992;4.498;2023-08-17T04:14:00;102158.50;;;16.43;89.35
60437;BME280;46289;51.992;4.498;2023-08-17T04:16:05;102161.06;;;16.44;89.45
60437;BME280;46289;51.992;4.498;2023-08-17T04:18:10;102161.78;;;16.48;89.35
60437;BME280;46289;51.992;4.498;2023-08-17T04:20:15;102160.88;;;16.49;89.21
60437;BME280;46289;51.992;4.498;2023-08-17T04:22:20;102157.28;;;16.50;88.98
60437;BME280;46289;51.992;4.498;2023-08-17T04:24:26;102153.63;;;16.53;89.05
60437;BME280;46289;51.992;4.498;2023-08-17T04:26:34;102162.53;;;16.52;88.79
60437;BME280;46289;51.992;4.498;2023-08-17T04:28:38;102159.94;;;16.50;88.82
60437;BME280;46289;51.992;4.498;2023-08-17T04:30:46;102157.16;;;16.53;88.80
60437;BME280;46289;51.992;4.498;2023-08-17T04:32:52;102157.94;;;16.55;88.45
60437;BME280;46289;51.992;4.498;2023-08-17T04:34:57;102162.44;;;16.53;88.91
60437;BME280;46289;51.992;4.498;2023-08-17T04:37:02;102167.19;;;16.46;89.07
60437;BME280;46289;51.992;4.498;2023-08-17T04:39:07;102162.59;;;16.50;89.28
60437;BME280;46289;51.992;4.498;2023-08-17T04:41:12;102168.72;;;16.52;89.22
60437;BME280;46289;51.992;4.498;2023-08-17T04:43:21;102162.34;;;16.56;89.20
60437;BME280;46289;51.992;4.498;2023-08-17T04:45:26;102163.13;;;16.58;89.18
60437;BME280;46289;51.992;4.498;2023-08-17T04:47:28;102169.22;;;16.60;89.01
60437;BME280;46289;51.992;4.498;2023-08-17T04:49:33;102166.44;;;16.63;89.27
60437;BME280;46289;51.992;4.498;2023-08-17T04:51:38;102158.75;;;16.57;89.35
60437;BME280;46289;51.992;4.498;2023-08-17T04:53:43;102168.75;;;16.71;88.71
60437;BME280;46289;51.992;4.498;2023-08-17T04:55:45;102163.44;;;16.71;88.66
60437;BME280;46289;51.992;4.498;2023-08-17T04:57:50;102154.47;;;16.74;89.10
60437;BME280;46289;51.992;4.498;2023-08-17T04:59:59;102158.06;;;16.73;88.79
60437;BME280;46289;51.992;4.498;2023-08-17T05:02:05;102162.38;;;16.75;89.04
60437;BME280;46289;51.992;4.498;2023-08-17T05:04:10;102154.47;;;16.74;89.07
60437;BME280;46289;51.992;4.498;2023-08-17T05:06:15;102159.63;;;16.77;89.29
60437;BME280;46289;51.992;4.498;2023-08-17T05:08:21;102158.06;;;16.73;89.53
60437;BME280;46289;51.992;4.498;2023-08-17T05:10:29;102157.91;;;16.76;89.37
60437;BME280;46289;51.992;4.498;2023-08-17T05:12:33;102152.63;;;16.76;89.74
60437;BME280;46289;51.992;4.498;2023-08-17T05:14:38;102145.34;;;16.81;89.78
60437;BME280;46289;51.992;4.498;2023-08-17T05:16:47;102142.59;;;16.82;89.44
60437;BME280;46289;51.992;4.498;2023-08-17T05:18:52;102148.13;;;16.78;89.91
60437;BME280;46289;51.992;4.498;2023-08-17T05:20:58;102148.13;;;16.78;90.07
60437;BME280;46289;51.992;4.498;2023-08-17T05:23:03;102154.25;;;16.80;89.86
60437;BME280;46289;51.992;4.498;2023-08-17T05:25:08;102146.28;;;16.80;89.86
60437;BME280;46289;51.992;4.498;2023-08-17T05:27:14;102148.94;;;16.80;89.97
60437;BME280;46289;51.992;4.498;2023-08-17T05:29:19;102148.25;;;16.75;90.05
60437;BME280;46289;51.992;4.498;2023-08-17T05:31:22;102152.50;;;16.79;90.26
60437;BME280;46289;51.992;4.498;2023-08-17T05:33:32;102153.47;;;16.76;90.37
60437;BME280;46289;51.992;4.498;2023-08-17T05:35:38;102159.25;;;16.86;89.98
60437;BME280;46289;51.992;4.498;2023-08-17T05:37:44;102163.13;;;16.79;90.27
60437;BME280;46289;51.992;4.498;2023-08-17T05:39:52;102155.16;;;16.79;90.30
60437;BME280;46289;51.992;4.498;2023-08-17T05:41:57;102162.22;;;16.80;90.50
60437;BME280;46289;51.992;4.498;2023-08-17T05:44:04;102149.63;;;16.83;90.36
60437;BME280;46289;51.992;4.498;2023-08-17T05:46:09;102159.25;;;16.86;90.47
60437;BME280;46289;51.992;4.498;2023-08-17T05:48:14;102160.81;;;16.90;89.85
60437;BME280;46289;51.992;4.498;2023-08-17T05:50:22;102167.59;;;16.97;89.67
60437;BME280;46289;51.992;4.498;2023-08-17T05:52:27;102165.53;;;17.04;89.73
60437;BME280;46289;51.992;4.498;2023-08-17T05:54:32;102165.38;;;17.07;89.44
60437;BME280;46289;51.992;4.498;2023-08-17T05:56:37;102170.59;;;17.08;88.63
60437;BME280;46289;51.992;4.498;2023-08-17T05:58:46;102167.19;;;17.06;88.66
60437;BME280;46289;51.992;4.498;2023-08-17T06:00:52;102175.00;;;17.09;88.91
60437;BME280;46289;51.992;4.498;2023-08-17T06:02:57;102172.13;;;17.14;88.56
60437;BME280;46289;51.992;4.498;2023-08-17T06:05:04;102176.28;;;17.20;88.50
60437;BME280;46289;51.992;4.498;2023-08-17T06:07:09;102177.16;;;17.20;88.25
60437;BME280;46289;51.992;4.498;2023-08-17T06:09:14;102173.69;;;17.18;88.31
60437;BME280;46289;51.992;4.498;2023-08-17T06:11:22;102177.19;;;17.19;87.98
60437;BME280;46289;51.992;4.498;2023-08-17T06:13:27;102172.69;;;17.21;87.86
60437;BME280;46289;51.992;4.498;2023-08-17T06:15:32;102175.03;;;17.27;87.78
60437;BME280;46289;51.992;4.498;2023-08-17T06:17:37;102171.47;;;17.28;88.12
60437;BME280;46289;51.992;4.498;2023-08-17T06:19:43;102172.31;;;17.28;87.84
60437;BME280;46289;51.992;4.498;2023-08-17T06:21:48;102172.88;;;17.35;87.69
60437;BME280;46289;51.992;4.498;2023-08-17T06:24:04;102177.19;;;17.38;87.94
60437;BME280;46289;51.992;4.498;2023-08-17T06:26:14;102173.09;;;17.49;87.09
60437;BME280;46289;51.992;4.498;2023-08-17T06:28:22;102176.44;;;17.53;87.00
60437;BME280;46289;51.992;4.498;2023-08-17T06:30:27;102177.09;;;17.58;87.20
60437;BME280;46289;51.992;4.498;2023-08-17T06:32:35;102168.06;;;17.62;86.94
60437;BME280;46289;51.992;4.498;2023-08-17T06:34:40;102176.03;;;17.62;86.65
60437;BME280;46289;51.992;4.498;2023-08-17T06:36:57;102182.53;;;17.74;86.55
60437;BME280;46289;51.992;4.498;2023-08-17T06:39:08;102173.75;;;17.72;86.14
60437;BME280;46289;51.992;4.498;2023-08-17T06:41:23;102171.47;;;17.83;86.24
60437;BME280;46289;51.992;4.498;2023-08-17T06:43:28;102183.81;;;17.84;86.05
60437;BME280;46289;51.992;4.498;2023-08-17T06:45:34;102181.97;;;17.86;85.71
60437;BME280;46289;51.992;4.498;2023-08-17T06:47:39;102182.28;;;17.97;85.04
60437;BME280;46289;51.992;4.498;2023-08-17T06:49:44;102179.06;;;18.08;85.08
60437;BME280;46289;51.992;4.498;2023-08-17T06:51:50;102182.19;;;18.16;84.79
60437;BME280;46289;51.992;4.498;2023-08-17T06:53:55;102178.84;;;18.30;84.40
60437;BME280;46289;51.992;4.498;2023-08-17T06:56:02;102170.53;;;18.36;83.77
60437;BME280;46289;51.992;4.498;2023-08-17T06:58:07;102171.31;;;18.38;83.91
60437;BME280;46289;51.992;4.498;2023-08-17T07:00:16;102171.94;;;18.43;83.51
60437;BME280;46289;51.992;4.498;2023-08-17T07:02:31;102173.66;;;18.45;83.46
60437;BME280;46289;51.992;4.498;2023-08-17T07:04:51;102167.47;;;18.44;82.97
60437;BME280;46289;51.992;4.498;2023-08-17T07:06:56;102169.06;;;18.64;82.88
60437;BME280;46289;51.992;4.498;2023-08-17T07:09:02;102164.63;;;18.98;81.55
60437;BME280;46289;51.992;4.498;2023-08-17T07:11:12;102161.72;;;19.50;79.62
60437;BME280;46289;51.992;4.498;2023-08-17T07:13:17;102162.56;;;19.50;79.33
60437;BME280;46289;51.992;4.498;2023-08-17T07:15:23;102163.44;;;19.83;78.50
60437;BME280;46289;51.992;4.498;2023-08-17T07:17:28;102172.47;;;19.80;77.21
60437;BME280;46289;51.992;4.498;2023-08-17T07:19:33;102174.53;;;20.05;76.78
60437;BME280;46289;51.992;4.498;2023-08-17T07:21:58;102166.59;;;20.20;76.15
60437;BME280;46289;51.992;4.498;2023-08-17T07:24:12;102177.84;;;19.94;76.36
60437;BME280;46289;51.992;4.498;2023-08-17T07:26:20;102181.56;;;19.60;78.09
60437;BME280;46289;51.992;4.498;2023-08-17T07:28:25;102184.41;;;19.57;78.05
60437;BME280;46289;51.992;4.498;2023-08-17T07:30:33;102188.00;;;20.04;77.22
60437;BME280;46289;51.992;4.498;2023-08-17T07:32:38;102183.44;;;20.20;76.07
60437;BME280;46289;51.992;4.498;2023-08-17T07:34:43;102181.06;;;20.60;75.18
60437;BME280;46289;51.992;4.498;2023-08-17T07:36:48;102176.50;;;20.91;73.73
60437;BME280;46289;51.992;4.498;2023-08-17T07:38:56;102183.25;;;20.96;72.98
60437;BME280;46289;51.992;4.498;2023-08-17T07:41:04;102186.00;;;20.95;72.46
60437;BME280;46289;51.992;4.498;2023-08-17T07:43:12;102182.69;;;20.77;73.10
60437;BME280;46289;51.992;4.498;2023-08-17T07:45:17;102178.56;;;21.00;72.87
60437;BME280;46289;51.992;4.498;2023-08-17T07:47:22;102169.31;;;20.91;71.96
60437;BME280;46289;51.992;4.498;2023-08-17T07:49:28;102167.63;;;20.76;71.76
60437;BME280;46289;51.992;4.498;2023-08-17T07:51:37;102172.13;;;20.31;73.00
60437;BME280;46289;51.992;4.498;2023-08-17T07:53:43;102171.16;;;20.17;73.44
60437;BME280;46289;51.992;4.498;2023-08-17T07:55:48;102169.66;;;20.28;73.71
60437;BME280;46289;51.992;4.498;2023-08-17T07:57:56;102165.84;;;20.46;73.29
60437;BME280;46289;51.992;4.498;2023-08-17T08:00:06;102180.91;;;20.33;73.88
60437;BME280;46289;51.992;4.498;2023-08-17T08:02:11;102158.25;;;20.10;74.38
60437;BME280;46289;51.992;4.498;2023-08-17T08:04:16;102167.84;;;19.98;75.63
60437;BME280;46289;51.992;4.498;2023-08-17T08:06:22;102175.38;;;20.06;75.29
60437;BME280;46289;51.992;4.498;2023-08-17T08:08:25;102181.75;;;20.03;75.20
60437;BME280;46289;51.992;4.498;2023-08-17T08:10:33;102173.72;;;19.89;75.45
60437;BME280;46289;51.992;4.498;2023-08-17T08:12:38;102169.84;;;19.94;74.74
60437;BME280;46289;51.992;4.498;2023-08-17T08:14:43;102175.06;;;20.71;72.37
60437;BME280;46289;51.992;4.498;2023-08-17T08:16:51;102165.34;;;20.70;71.53
60437;BME280;46289;51.992;4.498;2023-08-17T08:18:56;102163.94;;;20.48;72.34
60437;BME280;46289;51.992;4.498;2023-08-17T08:21:02;102172.09;;;20.75;72.10
60437;BME280;46289;51.992;4.498;2023-08-17T08:23:09;102159.72;;;21.30;69.90
60437;BME280;46289;51.992;4.498;2023-08-17T08:25:15;102156.75;;;20.93;71.02
60437;BME280;46289;51.992;4.498;2023-08-17T08:27:20;102162.66;;;21.40;69.67
60437;BME280;46289;51.992;4.498;2023-08-17T08:29:27;102160.19;;;21.64;68.74
60437;BME280;46289;51.992;4.498;2023-08-17T08:31:34;102152.78;;;21.13;69.57
60437;BME280;46289;51.992;4.498;2023-08-17T08:33:43;102164.25;;;20.87;70.63
60437;BME280;46289;51.992;4.498;2023-08-17T08:35:48;102146.75;;;21.38;69.49
60437;BME280;46289;51.992;4.498;2023-08-17T08:37:51;102155.66;;;21.37;69.16
60437;BME280;46289;51.992;4.498;2023-08-17T08:39:57;102144.50;;;21.45;68.36
60437;BME280;46289;51.992;4.498;2023-08-17T08:42:03;102148.44;;;21.66;68.39
60437;BME280;46289;51.992;4.498;2023-08-17T08:44:08;102161.13;;;21.90;67.99
60437;BME280;46289;51.992;4.498;2023-08-17T08:46:16;102150.03;;;22.09;67.22
60437;BME280;46289;51.992;4.498;2023-08-17T08:48:27;102146.66;;;21.80;67.65
60437;BME280;46289;51.992;4.498;2023-08-17T08:50:39;102147.66;;;21.91;67.98
60437;BME280;46289;51.992;4.498;2023-08-17T08:52:53;102141.81;;;21.72;68.62
60437;BME280;46289;51.992;4.498;2023-08-17T08:55:10;102150.22;;;22.06;67.72
60437;BME280;46289;51.992;4.498;2023-08-17T08:57:15;102147.19;;;22.25;66.45
60437;BME280;46289;51.992;4.498;2023-08-17T08:59:28;102137.44;;;22.37;66.45
60437;BME280;46289;51.992;4.498;2023-08-17T09:01:33;102133.44;;;22.81;65.99
60437;BME280;46289;51.992;4.498;2023-08-17T09:03:39;102136.56;;;23.24;64.51
60437;BME280;46289;51.992;4.498;2023-08-17T09:05:52;102128.56;;;23.11;64.13
60437;BME280;46289;51.992;4.498;2023-08-17T09:07:58;102133.50;;;23.41;63.65
60437;BME280;46289;51.992;4.498;2023-08-17T09:10:05;102133.22;;;23.57;62.93
60437;BME280;46289;51.992;4.498;2023-08-17T09:12:10;102132.09;;;23.73;62.43
60437;BME280;46289;51.992;4.498;2023-08-17T09:14:30;102125.78;;;23.37;61.91
60437;BME280;46289;51.992;4.498;2023-08-17T09:16:36;102126.41;;;23.88;62.02
60437;BME280;46289;51.992;4.498;2023-08-17T09:18:40;102117.25;;;23.67;62.56
60437;BME280;46289;51.992;4.498;2023-08-17T09:20:47;102126.59;;;23.50;62.55
60437;BME280;46289;51.992;4.498;2023-08-17T09:22:54;102123.25;;;23.71;62.18
60437;BME280;46289;51.992;4.498;2023-08-17T09:25:00;102124.75;;;24.10;60.96
60437;BME280;46289;51.992;4.498;2023-08-17T09:27:05;102121.44;;;23.71;61.59
60437;BME280;46289;51.992;4.498;2023-08-17T09:29:17;102127.66;;;23.48;61.81
60437;BME280;46289;51.992;4.498;2023-08-17T09:31:24;102119.38;;;23.27;63.24
60437;BME280;46289;51.992;4.498;2023-08-17T09:33:30;102124.53;;;23.30;61.64
60437;BME280;46289;51.992;4.498;2023-08-17T09:35:36;102115.28;;;23.10;62.58
60437;BME280;46289;51.992;4.498;2023-08-17T09:37:41;102118.06;;;23.32;62.78
60437;BME280;46289;51.992;4.498;2023-08-17T09:39:50;102110.63;;;23.73;60.67
60437;BME280;46289;51.992;4.498;2023-08-17T09:41:56;102112.41;;;23.00;62.31
60437;BME280;46289;51.992;4.498;2023-08-17T09:44:00;102111.34;;;22.90;63.76
60437;BME280;46289;51.992;4.498;2023-08-17T09:46:05;102108.53;;;23.04;62.97
60437;BME280;46289;51.992;4.498;2023-08-17T09:48:11;102091.28;;;24.03;61.48
60437;BME280;46289;51.992;4.498;2023-08-17T09:50:13;102096.78;;;23.42;61.06
60437;BME280;46289;51.992;4.498;2023-08-17T09:52:19;102095.53;;;23.35;61.84
60437;BME280;46289;51.992;4.498;2023-08-17T09:54:24;102095.16;;;23.04;62.26
60437;BME280;46289;51.992;4.498;2023-08-17T09:56:34;102106.69;;;23.41;61.74
60437;BME280;46289;51.992;4.498;2023-08-17T09:58:40;102090.56;;;24.12;59.81
60437;BME280;46289;51.992;4.498;2023-08-17T10:00:46;102102.41;;;24.32;59.26
60437;BME280;46289;51.992;4.498;2023-08-17T10:02:53;102102.84;;;23.92;59.62
60437;BME280;46289;51.992;4.498;2023-08-17T10:04:58;102107.75;;;23.39;60.47
60437;BME280;46289;51.992;4.498;2023-08-17T10:07:06;102098.59;;;23.30;61.40
60437;BME280;46289;51.992;4.498;2023-08-17T10:09:14;102116.94;;;23.23;62.50
60437;BME280;46289;51.992;4.498;2023-08-17T10:11:24;102105.50;;;23.33;62.02
60437;BME280;46289;51.992;4.498;2023-08-17T10:13:35;102106.88;;;23.98;59.85
60437;BME280;46289;51.992;4.498;2023-08-17T10:15:48;102089.00;;;24.21;59.98
60437;BME280;46289;51.992;4.498;2023-08-17T10:18:02;102096.00;;;23.64;60.34
60437;BME280;46289;51.992;4.498;2023-08-17T10:20:18;102083.63;;;24.09;60.29
60437;BME280;46289;51.992;4.498;2023-08-17T10:22:28;102076.91;;;24.15;59.87
60437;BME280;46289;51.992;4.498;2023-08-17T10:24:35;102088.38;;;23.71;60.24
60437;BME280;46289;51.992;4.498;2023-08-17T10:26:44;102088.09;;;23.62;59.92
60437;BME280;46289;51.992;4.498;2023-08-17T10:28:58;102079.09;;;23.99;58.99
60437;BME280;46289;51.992;4.498;2023-08-17T10:31:14;102080.84;;;23.76;59.75
60437;BME280;46289;51.992;4.498;2023-08-17T10:33:20;102081.38;;;24.03;59.14
60437;BME280;46289;51.992;4.498;2023-08-17T10:35:25;102081.59;;;23.54;61.15
60437;BME280;46289;51.992;4.498;2023-08-17T10:37:32;102076.41;;;23.39;61.21
60437;BME280;46289;51.992;4.498;2023-08-17T10:39:44;102092.97;;;23.33;62.53
60437;BME280;46289;51.992;4.498;2023-08-17T10:41:51;102084.13;;;23.44;61.40
60437;BME280;46289;51.992;4.498;2023-08-17T10:43:58;102080.78;;;24.00;59.86
60437;BME280;46289;51.992;4.498;2023-08-17T10:46:16;102082.56;;;23.77;61.16
60437;BME280;46289;51.992;4.498;2023-08-17T10:48:26;102087.72;;;23.91;60.96
60437;BME280;46289;51.992;4.498;2023-08-17T10:50:39;102097.69;;;23.54;61.37
60437;BME280;46289;51.992;4.498;2023-08-17T10:52:51;102090.00;;;23.73;60.75
60437;BME280;46289;51.992;4.498;2023-08-17T10:59:10;102085.88;;;23.80;59.92
60437;BME280;46289;51.992;4.498;2023-08-17T11:01:33;102088.34;;;23.95;59.37
60437;BME280;46289;51.992;4.498;2023-08-17T11:03:39;102083.25;;;24.37;58.77
60437;BME280;46289;51.992;4.498;2023-08-17T11:05:47;102077.56;;;24.52;58.92
60437;BME280;46289;51.992;4.498;2023-08-17T11:07:54;102074.50;;;23.88;59.45